Time;durP1;ratioP1;P1;durP2;ratioP2;P2;SDS_P1;SDS_P2;PMS_P1;PMS_P2;Temp;Humidity;BMP_temperature;BMP_pressure;BME280_temperature;BME280_humidity;BME280_pressure;Samples;Min_cycle;Max_cycle;Signal;HPM_P1;HPM_P2
2023/04/16 00:00:41;;;;;;;;;;;10.00;99.90;;;;;;2100963;28;19912;-73
2023/04/16 00:01:41;;;;;;;;;;;10.00;99.90;;;;;;2102891;28;19912;-73
2023/04/16 00:02:41;;;;;;;;;;;10.00;99.90;;;;;;2102522;28;19946;-73
2023/04/16 00:03:42;;;;;;;;;;;10.00;99.90;;;;;;2101152;28;19912;-73
2023/04/16 00:04:42;;;;;;;;;;;10.00;99.90;;;;;;2102506;28;19923;-73
2023/04/16 00:05:43;;;;;;;;;;;10.00;99.90;;;;;;2102571;28;20021;-73
2023/04/16 00:06:43;;;;;;;;;;;10.00;99.90;;;;;;2101824;28;19972;-72
2023/04/16 00:07:44;;;;;;;;;;;10.00;99.90;;;;;;2101157;28;20363;-73
2023/04/16 00:08:44;;;;;;;;;;;10.00;99.90;;;;;;2100690;28;20347;-73
2023/04/16 00:09:45;;;;;;;;;;;10.00;99.90;;;;;;2100497;28;19915;-73
2023/04/16 00:10:46;;;;;;;;;;;10.00;99.90;;;;;;2102591;28;19912;-73
2023/04/16 00:11:46;;;;;;;;;;;10.00;99.90;;;;;;2100083;28;19919;-73
2023/04/16 00:12:46;;;;;;;;;;;10.00;99.90;;;;;;2101191;28;20081;-72
2023/04/16 00:13:47;;;;;;;;;;;10.00;99.90;;;;;;2099577;28;19916;-72
2023/04/16 00:14:48;;;;;;;;;;;10.00;99.90;;;;;;2101218;28;19908;-72
2023/04/16 00:15:48;;;;;;;;;;;10.00;99.90;;;;;;2103184;28;19958;-73
2023/04/16 00:16:49;;;;;;;;;;;10.00;99.90;;;;;;2100670;28;20030;-73
2023/04/16 00:17:49;;;;;;;;;;;10.00;99.90;;;;;;2101925;28;20294;-73
2023/04/16 00:18:49;;;;;;;;;;;10.00;99.90;;;;;;2097913;28;20525;-73
2023/04/16 00:19:50;;;;;;;;;;;10.00;99.90;;;;;;2098281;28;19921;-73
2023/04/16 00:20:50;;;;;;;;;;;10.00;99.90;;;;;;2102875;28;20418;-73
2023/04/16 00:21:52;;;;;;;;;;;10.00;99.90;;;;;;2101720;28;20435;-73
2023/04/16 00:22:52;;;;;;;;;;;10.00;99.90;;;;;;2103845;28;19916;-72
2023/04/16 00:23:53;;;;;;;;;;;10.00;99.90;;;;;;2101395;28;19912;-72
2023/04/16 00:24:53;;;;;;;;;;;10.00;99.90;;;;;;2103301;28;19916;-72
2023/04/16 00:25:56;;;;;;;;;;;10.00;99.90;;;;;;2102073;28;19931;-72
2023/04/16 00:26:56;;;;;;;;;;;10.00;99.90;;;;;;2100738;28;19927;-72
2023/04/16 00:27:57;;;;;;;;;;;10.00;99.90;;;;;;2101650;28;19919;-72
2023/04/16 00:28:57;;;;;;;;;;;10.00;99.90;;;;;;2099323;28;19922;-73
2023/04/16 00:29:57;;;;;;;;;;;9.90;99.90;;;;;;2101743;28;19912;-73
2023/04/16 00:30:59;;;;;;;;;;;9.90;99.90;;;;;;2102035;28;20088;-73
2023/04/16 00:32:00;;;;;;;;;;;9.90;99.90;;;;;;2101277;28;19908;-73
2023/04/16 00:33:01;;;;;;;;;;;9.90;99.90;;;;;;2101204;28;20348;-73
2023/04/16 00:34:02;;;;;;;;;;;9.90;99.90;;;;;;2101635;28;19923;-73
2023/04/16 00:35:03;;;;;;;;;;;10.00;99.90;;;;;;2101811;28;19923;-73
2023/04/16 00:36:03;;;;;;;;;;;10.00;99.90;;;;;;2101413;28;19940;-73
2023/04/16 00:37:04;;;;;;;;;;;10.00;99.90;;;;;;2101392;28;19912;-73
2023/04/16 00:38:04;;;;;;;;;;;10.00;99.90;;;;;;2100115;28;19966;-72
2023/04/16 00:39:05;;;;;;;;;;;10.00;99.90;;;;;;2100578;28;19950;-72
2023/04/16 00:40:06;;;;;;;;;;;10.00;99.90;;;;;;2102506;28;20506;-72
2023/04/16 00:41:06;;;;;;;;;;;10.00;99.90;;;;;;2100537;28;20077;-73
2023/04/16 00:42:07;;;;;;;;;;;10.00;99.90;;;;;;2099876;28;19916;-72
2023/04/16 00:43:07;;;;;;;;;;;10.00;99.90;;;;;;2102310;28;20282;-73
2023/04/16 00:44:07;;;;;;;;;;;10.00;99.90;;;;;;2101797;28;19923;-73
2023/04/16 00:45:08;;;;;;;;;;;10.00;99.90;;;;;;2102190;28;20378;-73
2023/04/16 00:46:09;;;;;;;;;;;9.90;99.90;;;;;;2102070;28;19923;-72
2023/04/16 00:47:09;;;;;;;;;;;9.90;99.90;;;;;;2101267;28;19912;-72
2023/04/16 00:48:10;;;;;;;;;;;9.90;99.90;;;;;;2101374;28;20061;-72
2023/04/16 00:49:10;;;;;;;;;;;9.90;99.90;;;;;;2099863;28;19963;-73
2023/04/16 00:50:11;;;;;;;;;;;9.90;99.90;;;;;;2101133;28;22283;-73
2023/04/16 00:51:11;;;;;;;;;;;9.90;99.90;;;;;;2101432;28;19920;-73
2023/04/16 00:52:12;;;;;;;;;;;9.90;99.90;;;;;;2101856;28;19973;-73
2023/04/16 00:53:13;;;;;;;;;;;9.90;99.90;;;;;;2101017;28;19912;-73
2023/04/16 00:54:13;;;;;;;;;;;9.90;99.90;;;;;;2100097;28;19923;-73
2023/04/16 00:55:16;;;;;;;;;;;9.90;99.90;;;;;;2102294;28;19912;-73
2023/04/16 00:56:17;;;;;;;;;;;9.90;99.90;;;;;;2097692;28;19947;-73
2023/04/16 00:57:19;;;;;;;;;;;10.00;99.90;;;;;;2100205;28;19916;-73
2023/04/16 00:58:20;;;;;;;;;;;9.90;99.90;;;;;;2100307;28;20013;-73
2023/04/16 00:59:20;;;;;;;;;;;10.00;99.90;;;;;;2100073;28;19920;-73
2023/04/16 01:00:21;;;;;;;;;;;9.90;99.90;;;;;;2099748;28;20524;-73
2023/04/16 01:01:21;;;;;;;;;;;9.90;99.90;;;;;;2100394;28;19919;-72
2023/04/16 01:02:22;;;;;;;;;;;9.90;99.90;;;;;;2100495;28;19973;-73
2023/04/16 01:03:23;;;;;;;;;;;10.00;99.90;;;;;;2100874;28;19957;-73
2023/04/16 01:04:23;;;;;;;;;;;10.00;99.90;;;;;;2098671;28;20643;-73
2023/04/16 01:05:24;;;;;;;;;;;10.00;99.90;;;;;;2100402;28;19920;-73
2023/04/16 01:06:25;;;;;;;;;;;9.90;99.90;;;;;;2101422;28;19912;-73
2023/04/16 01:07:26;;;;;;;;;;;9.90;99.90;;;;;;2102218;28;19912;-73
2023/04/16 01:08:26;;;;;;;;;;;10.00;99.90;;;;;;2102355;28;19927;-72
2023/04/16 01:09:27;;;;;;;;;;;9.90;99.90;;;;;;2102176;28;19919;-72
2023/04/16 01:10:27;;;;;;;;;;;9.90;99.90;;;;;;2100023;28;19962;-73
2023/04/16 01:11:27;;;;;;;;;;;9.90;99.90;;;;;;2101683;28;19912;-73
2023/04/16 01:12:28;;;;;;;;;;;9.90;99.90;;;;;;2101146;28;19918;-73
2023/04/16 01:13:29;;;;;;;;;;;9.90;99.90;;;;;;2102197;28;19975;-73
2023/04/16 01:14:34;;;;;;;;;;;9.90;99.90;;;;;;2101859;28;20267;-73
2023/04/16 01:15:35;;;;;;;;;;;9.90;99.90;;;;;;2103305;28;19923;-73
2023/04/16 01:16:35;;;;;;;;;;;9.90;99.90;;;;;;2099879;28;19983;-73
2023/04/16 01:17:36;;;;;;;;;;;9.90;99.90;;;;;;2100047;28;19986;-73
2023/04/16 01:18:37;;;;;;;;;;;9.90;99.90;;;;;;2100948;28;19912;-73
2023/04/16 01:19:37;;;;;;;;;;;9.90;99.90;;;;;;2102417;28;19950;-73
2023/04/16 01:20:38;;;;;;;;;;;9.80;99.90;;;;;;2100865;28;19916;-73
2023/04/16 01:21:38;;;;;;;;;;;9.90;99.90;;;;;;2101377;28;19965;-72
2023/04/16 01:22:39;;;;;;;;;;;9.90;99.90;;;;;;2100255;28;19916;-73
2023/04/16 01:23:39;;;;;;;;;;;9.90;99.90;;;;;;2102099;28;19917;-73
2023/04/16 01:24:40;;;;;;;;;;;9.80;99.90;;;;;;2101539;28;20363;-73
2023/04/16 01:25:40;;;;;;;;;;;9.80;99.90;;;;;;2099151;28;19983;-73
2023/04/16 01:26:41;;;;;;;;;;;9.90;99.90;;;;;;2101182;28;19912;-73
2023/04/16 01:27:41;;;;;;;;;;;9.90;99.90;;;;;;2099517;28;19912;-73
2023/04/16 01:28:42;;;;;;;;;;;9.90;99.90;;;;;;2101576;28;19916;-73
2023/04/16 01:29:42;;;;;;;;;;;9.90;99.90;;;;;;2101483;28;19912;-73
2023/04/16 01:30:43;;;;;;;;;;;9.90;99.90;;;;;;2101951;28;20466;-73
2023/04/16 01:31:45;;;;;;;;;;;9.90;99.90;;;;;;2102838;28;19912;-72
2023/04/16 01:32:45;;;;;;;;;;;9.80;99.90;;;;;;2102718;28;20336;-72
2023/04/16 01:33:46;;;;;;;;;;;9.90;99.90;;;;;;2103016;28;20509;-73
2023/04/16 01:34:46;;;;;;;;;;;9.90;99.90;;;;;;2102655;28;19959;-73
2023/04/16 01:35:47;;;;;;;;;;;9.90;99.90;;;;;;2104311;28;20027;-73
2023/04/16 01:36:47;;;;;;;;;;;9.80;99.90;;;;;;2103400;28;19916;-72
2023/04/16 01:37:48;;;;;;;;;;;9.90;99.90;;;;;;2103409;28;19916;-72
2023/04/16 01:38:49;;;;;;;;;;;9.80;99.90;;;;;;2103133;28;19934;-72
2023/04/16 01:39:49;;;;;;;;;;;9.80;99.90;;;;;;2102194;28;19948;-72
2023/04/16 01:40:54;;;;;;;;;;;9.90;99.90;;;;;;2103802;28;19957;-73
2023/04/16 01:41:54;;;;;;;;;;;9.90;99.90;;;;;;2102450;28;19970;-73
2023/04/16 01:42:55;;;;;;;;;;;9.90;99.90;;;;;;2103166;28;19978;-72
2023/04/16 01:43:55;;;;;;;;;;;9.90;99.90;;;;;;2101644;28;20354;-73
2023/04/16 01:44:55;;;;;;;;;;;9.90;99.90;;;;;;2105101;28;19919;-73
2023/04/16 01:46:15;;;;;;;;;;;9.90;99.90;;;;;;2102435;28;20629;-73
2023/04/16 01:47:15;;;;;;;;;;;9.90;99.90;;;;;;2101266;28;19916;-72
2023/04/16 01:48:16;;;;;;;;;;;9.90;99.90;;;;;;2101177;28;20382;-73
2023/04/16 01:49:16;;;;;;;;;;;9.90;99.90;;;;;;2099019;28;19950;-73
2023/04/16 01:50:17;;;;;;;;;;;9.90;99.90;;;;;;2101375;28;20422;-73
2023/04/16 01:51:18;;;;;;;;;;;9.90;99.90;;;;;;2099971;28;19934;-73
2023/04/16 01:52:18;;;;;;;;;;;9.90;99.90;;;;;;2103342;28;19919;-73
2023/04/16 01:53:19;;;;;;;;;;;9.90;99.90;;;;;;2101991;28;19922;-73
2023/04/16 01:54:19;;;;;;;;;;;9.90;99.90;;;;;;2101569;28;19919;-73
2023/04/16 01:55:20;;;;;;;;;;;9.90;99.90;;;;;;2102825;28;19908;-73
2023/04/16 01:56:20;;;;;;;;;;;9.90;99.90;;;;;;2102978;28;20322;-73
2023/04/16 01:57:21;;;;;;;;;;;10.00;99.90;;;;;;2102683;28;19996;-73
2023/04/16 01:58:21;;;;;;;;;;;10.00;99.90;;;;;;2103382;28;19962;-73
2023/04/16 01:59:21;;;;;;;;;;;10.00;99.90;;;;;;2100976;28;20368;-73
2023/04/16 02:00:22;;;;;;;;;;;10.00;99.90;;;;;;2099791;28;19916;-73
2023/04/16 02:01:22;;;;;;;;;;;10.00;99.90;;;;;;2103896;28;19912;-73
2023/04/16 02:02:26;;;;;;;;;;;9.90;99.90;;;;;;2103336;28;19908;-73
2023/04/16 02:03:27;;;;;;;;;;;10.00;99.90;;;;;;2101149;28;20374;-73
2023/04/16 02:04:27;;;;;;;;;;;10.00;99.90;;;;;;2101132;28;20024;-73
2023/04/16 02:05:28;;;;;;;;;;;10.00;99.90;;;;;;2102686;28;19916;-73
2023/04/16 02:06:29;;;;;;;;;;;10.00;99.90;;;;;;2102275;28;19919;-73
2023/04/16 02:07:30;;;;;;;;;;;10.00;99.90;;;;;;2102529;28;20287;-73
2023/04/16 02:08:31;;;;;;;;;;;10.00;99.90;;;;;;2103296;28;19962;-73
2023/04/16 02:09:35;;;;;;;;;;;10.00;99.90;;;;;;2102514;28;19924;-73
2023/04/16 02:10:36;;;;;;;;;;;10.00;99.90;;;;;;2102385;28;19912;-73
2023/04/16 02:11:36;;;;;;;;;;;10.00;99.90;;;;;;2100655;28;19987;-73
2023/04/16 02:12:37;;;;;;;;;;;10.00;99.90;;;;;;2101440;28;19919;-73
2023/04/16 02:13:37;;;;;;;;;;;10.00;99.90;;;;;;2100883;28;19921;-73
2023/04/16 02:14:38;;;;;;;;;;;10.00;99.90;;;;;;2103790;28;19957;-73
2023/04/16 02:15:38;;;;;;;;;;;10.00;99.90;;;;;;2106931;28;19916;-73
2023/04/16 02:16:39;;;;;;;;;;;10.00;99.90;;;;;;2111247;28;19921;-73
2023/04/16 02:17:39;;;;;;;;;;;10.00;99.90;;;;;;2102488;28;20283;-73
2023/04/16 02:18:40;;;;;;;;;;;10.00;99.90;;;;;;2103723;28;19915;-73
2023/04/16 02:19:40;;;;;;;;;;;10.00;99.90;;;;;;2104805;28;19995;-73
2023/04/16 02:20:42;;;;;;;;;;;10.00;99.90;;;;;;2102233;28;20489;-73
2023/04/16 02:21:42;;;;;;;;;;;10.00;99.90;;;;;;2101713;28;19912;-73
2023/04/16 02:22:42;;;;;;;;;;;10.00;99.90;;;;;;2102160;28;19912;-73
2023/04/16 02:23:46;;;;;;;;;;;10.00;99.90;;;;;;2102539;28;20049;-73
2023/04/16 02:24:46;;;;;;;;;;;10.00;99.90;;;;;;2103244;28;20367;-73
2023/04/16 02:25:47;;;;;;;;;;;10.00;99.90;;;;;;2100679;28;19916;-73
2023/04/16 02:26:47;;;;;;;;;;;10.10;99.90;;;;;;2101950;28;19919;-73
2023/04/16 02:27:48;;;;;;;;;;;10.10;99.90;;;;;;2103274;28;20316;-73
2023/04/16 02:28:48;;;;;;;;;;;10.00;99.90;;;;;;2102780;28;19916;-73
2023/04/16 02:29:49;;;;;;;;;;;10.10;99.90;;;;;;2102169;28;19922;-73
2023/04/16 02:30:49;;;;;;;;;;;10.00;99.90;;;;;;2102486;28;20003;-73
2023/04/16 02:31:50;;;;;;;;;;;10.10;99.90;;;;;;2101554;28;20363;-73
2023/04/16 02:32:50;;;;;;;;;;;10.00;99.90;;;;;;2102684;28;19912;-73
2023/04/16 02:33:51;;;;;;;;;;;10.10;99.90;;;;;;2103063;28;19912;-73
2023/04/16 02:34:51;;;;;;;;;;;10.10;99.90;;;;;;2103521;28;19961;-73
2023/04/16 02:35:52;;;;;;;;;;;10.10;99.90;;;;;;2103755;28;19939;-73
2023/04/16 02:36:53;;;;;;;;;;;10.10;99.90;;;;;;2101581;28;20296;-73
2023/04/16 02:37:54;;;;;;;;;;;10.10;99.90;;;;;;2102432;28;19920;-73
2023/04/16 02:38:54;;;;;;;;;;;10.10;99.90;;;;;;2102106;28;19920;-73
2023/04/16 02:39:56;;;;;;;;;;;10.10;99.90;;;;;;2102460;28;19924;-73
2023/04/16 02:40:57;;;;;;;;;;;10.10;99.90;;;;;;2103355;28;19923;-73
2023/04/16 02:41:59;;;;;;;;;;;10.10;99.90;;;;;;2103814;28;19923;-73
2023/04/16 02:43:00;;;;;;;;;;;10.10;99.90;;;;;;2105047;28;19919;-73
2023/04/16 02:44:00;;;;;;;;;;;10.20;99.90;;;;;;2103586;28;19922;-73
2023/04/16 02:45:00;;;;;;;;;;;10.10;99.90;;;;;;2103429;28;19912;-73
2023/04/16 02:46:01;;;;;;;;;;;10.10;99.90;;;;;;2103073;28;20638;-73
2023/04/16 02:47:01;;;;;;;;;;;10.10;99.90;;;;;;2102663;28;19952;-73
2023/04/16 02:48:02;;;;;;;;;;;10.10;99.90;;;;;;2102907;28;19912;-73
2023/04/16 02:49:02;;;;;;;;;;;10.10;99.90;;;;;;2100914;28;19913;-73
2023/04/16 02:50:03;;;;;;;;;;;10.10;99.90;;;;;;2101712;28;20024;-73
2023/04/16 02:51:03;;;;;;;;;;;10.10;99.90;;;;;;2098581;28;19920;-73
2023/04/16 02:52:04;;;;;;;;;;;10.10;99.90;;;;;;2103579;28;20524;-73
2023/04/16 02:53:06;;;;;;;;;;;10.10;99.90;;;;;;2102978;28;20783;-73
2023/04/16 02:54:07;;;;;;;;;;;10.10;99.90;;;;;;2102934;28;19931;-73
2023/04/16 02:55:07;;;;;;;;;;;10.10;99.90;;;;;;2103333;28;19909;-73
2023/04/16 02:56:08;;;;;;;;;;;10.10;99.90;;;;;;2103294;28;19974;-73
2023/04/16 02:57:08;;;;;;;;;;;10.10;99.90;;;;;;2102711;28;19965;-73
2023/04/16 02:58:09;;;;;;;;;;;10.20;99.90;;;;;;2101476;28;19920;-72
2023/04/16 02:59:09;;;;;;;;;;;10.10;99.90;;;;;;2100657;28;19965;-73
2023/04/16 03:00:10;;;;;;;;;;;10.10;99.90;;;;;;2100278;28;19925;-73
2023/04/16 03:01:10;;;;;;;;;;;10.10;99.90;;;;;;2100394;28;19917;-73
2023/04/16 03:02:11;;;;;;;;;;;10.10;99.90;;;;;;2102977;28;19915;-73
2023/04/16 03:03:11;;;;;;;;;;;10.10;99.90;;;;;;2102417;28;20390;-73
2023/04/16 03:04:12;;;;;;;;;;;10.10;99.90;;;;;;2101021;28;19919;-73
2023/04/16 03:05:12;;;;;;;;;;;10.10;99.90;;;;;;2102926;28;19916;-73
2023/04/16 03:06:13;;;;;;;;;;;10.10;99.90;;;;;;2101868;28;19917;-73
2023/04/16 03:07:13;;;;;;;;;;;10.10;99.90;;;;;;2102549;28;20414;-73
2023/04/16 03:08:14;;;;;;;;;;;10.10;99.90;;;;;;2102476;28;19916;-73
2023/04/16 03:09:15;;;;;;;;;;;10.10;99.90;;;;;;2100398;28;20323;-73
2023/04/16 03:10:15;;;;;;;;;;;10.10;99.90;;;;;;2103453;28;19913;-73
2023/04/16 03:11:16;;;;;;;;;;;10.10;99.90;;;;;;2100991;28;19908;-73
2023/04/16 03:12:16;;;;;;;;;;;10.10;99.90;;;;;;2102201;28;19926;-73
2023/04/16 03:13:17;;;;;;;;;;;10.10;99.90;;;;;;2102154;28;20371;-73
2023/04/16 03:14:17;;;;;;;;;;;10.10;99.90;;;;;;2101586;28;19962;-73
2023/04/16 03:15:18;;;;;;;;;;;10.10;99.90;;;;;;2101325;28;19919;-73
2023/04/16 03:16:18;;;;;;;;;;;10.20;99.90;;;;;;2102063;28;20357;-73
2023/04/16 03:17:19;;;;;;;;;;;10.20;99.90;;;;;;2101496;28;19917;-73
2023/04/16 03:18:19;;;;;;;;;;;10.10;99.90;;;;;;2102889;28;19923;-73
2023/04/16 03:19:20;;;;;;;;;;;10.20;99.90;;;;;;2101113;28;19955;-73
2023/04/16 03:20:20;;;;;;;;;;;10.20;99.90;;;;;;2102392;28;19941;-73
2023/04/16 03:21:21;;;;;;;;;;;10.20;99.90;;;;;;2102398;28;19994;-73
2023/04/16 03:22:22;;;;;;;;;;;10.20;99.90;;;;;;2100242;28;19959;-73
2023/04/16 03:23:22;;;;;;;;;;;10.20;99.90;;;;;;2102558;28;20423;-73
2023/04/16 03:24:23;;;;;;;;;;;10.20;99.90;;;;;;2101123;28;20304;-73
2023/04/16 03:25:23;;;;;;;;;;;10.20;99.90;;;;;;2101631;28;20026;-73
2023/04/16 03:26:23;;;;;;;;;;;10.20;99.90;;;;;;2103302;28;20470;-73
2023/04/16 03:27:24;;;;;;;;;;;10.20;99.90;;;;;;2101393;28;19912;-73
2023/04/16 03:28:25;;;;;;;;;;;10.20;99.90;;;;;;2103389;28;20299;-73
2023/04/16 03:29:26;;;;;;;;;;;10.20;99.90;;;;;;2101313;28;20492;-73
2023/04/16 03:30:26;;;;;;;;;;;10.20;99.90;;;;;;2100902;28;19999;-73
2023/04/16 03:31:27;;;;;;;;;;;10.20;99.90;;;;;;2102702;28;19920;-73
2023/04/16 03:32:27;;;;;;;;;;;10.20;99.90;;;;;;2101528;28;19912;-73
2023/04/16 03:33:27;;;;;;;;;;;10.20;99.90;;;;;;2102175;28;19919;-73
2023/04/16 03:34:28;;;;;;;;;;;10.20;99.90;;;;;;2102282;28;19966;-73
2023/04/16 03:35:28;;;;;;;;;;;10.20;99.90;;;;;;2101777;28;19912;-73
2023/04/16 03:36:29;;;;;;;;;;;10.20;99.90;;;;;;2103098;28;19912;-73
2023/04/16 03:37:30;;;;;;;;;;;10.20;99.90;;;;;;2100808;28;20012;-73
2023/04/16 03:38:30;;;;;;;;;;;10.20;99.90;;;;;;2101326;28;20343;-73
2023/04/16 03:39:31;;;;;;;;;;;10.30;99.90;;;;;;2102252;28;20028;-73
2023/04/16 03:40:32;;;;;;;;;;;10.20;99.90;;;;;;2100603;28;19908;-73
2023/04/16 03:41:32;;;;;;;;;;;10.20;99.90;;;;;;2103423;28;19912;-73
2023/04/16 03:42:33;;;;;;;;;;;10.20;99.90;;;;;;2103115;28;19963;-73
2023/04/16 03:43:33;;;;;;;;;;;10.20;99.90;;;;;;2100418;28;19921;-73
2023/04/16 03:44:34;;;;;;;;;;;10.20;99.90;;;;;;2103011;28;20513;-73
2023/04/16 03:45:34;;;;;;;;;;;10.20;99.90;;;;;;2099535;28;19916;-73
2023/04/16 03:46:35;;;;;;;;;;;10.20;99.90;;;;;;2101346;28;21532;-73
2023/04/16 03:47:35;;;;;;;;;;;10.20;99.90;;;;;;2103732;28;19912;-73
2023/04/16 03:48:36;;;;;;;;;;;10.20;99.90;;;;;;2101180;28;20092;-73
2023/04/16 03:49:36;;;;;;;;;;;10.20;99.90;;;;;;2102127;28;19912;-73
2023/04/16 03:50:37;;;;;;;;;;;10.20;99.90;;;;;;2100514;28;20390;-73
2023/04/16 03:51:37;;;;;;;;;;;10.30;99.90;;;;;;2100485;28;20011;-73
2023/04/16 03:52:37;;;;;;;;;;;10.30;99.90;;;;;;2103816;28;19912;-73
2023/04/16 03:53:38;;;;;;;;;;;10.30;99.90;;;;;;2101600;28;19908;-73
2023/04/16 03:54:38;;;;;;;;;;;10.30;99.90;;;;;;2100852;28;19916;-73
2023/04/16 03:55:39;;;;;;;;;;;10.30;99.90;;;;;;2101678;28;19909;-73
2023/04/16 03:56:40;;;;;;;;;;;10.30;99.90;;;;;;2101666;28;19915;-73
2023/04/16 03:57:41;;;;;;;;;;;10.30;99.90;;;;;;2103087;28;20344;-73
2023/04/16 03:58:41;;;;;;;;;;;10.30;99.90;;;;;;2100638;28;19927;-73
2023/04/16 03:59:41;;;;;;;;;;;10.30;99.90;;;;;;2102359;28;19916;-73
2023/04/16 04:00:42;;;;;;;;;;;10.30;99.90;;;;;;2102284;28;19920;-73
2023/04/16 04:01:43;;;;;;;;;;;10.30;99.90;;;;;;2101547;28;20434;-73
2023/04/16 04:02:43;;;;;;;;;;;10.30;99.90;;;;;;2102156;28;20280;-73
2023/04/16 04:03:43;;;;;;;;;;;10.30;99.90;;;;;;2101719;28;19958;-73
2023/04/16 04:04:44;;;;;;;;;;;10.30;99.90;;;;;;2101870;28;19965;-73
2023/04/16 04:05:44;;;;;;;;;;;10.30;99.90;;;;;;2102426;28;20332;-73
2023/04/16 04:06:45;;;;;;;;;;;10.30;99.90;;;;;;2100242;28;19973;-73
2023/04/16 04:07:46;;;;;;;;;;;10.30;99.90;;;;;;2100156;28;19948;-73
2023/04/16 04:08:46;;;;;;;;;;;10.30;99.90;;;;;;2103087;28;19920;-73
2023/04/16 04:09:47;;;;;;;;;;;10.30;99.90;;;;;;2100690;28;19982;-73
2023/04/16 04:10:47;;;;;;;;;;;10.30;99.90;;;;;;2101658;28;20615;-73
2023/04/16 04:11:49;;;;;;;;;;;10.30;99.90;;;;;;2102387;28;19912;-73
2023/04/16 04:12:49;;;;;;;;;;;10.30;99.90;;;;;;2102374;28;19908;-73
2023/04/16 04:13:50;;;;;;;;;;;10.30;99.90;;;;;;2099180;28;19923;-73
2023/04/16 04:14:50;;;;;;;;;;;10.30;99.90;;;;;;2100018;28;19912;-73
2023/04/16 04:15:50;;;;;;;;;;;10.30;99.90;;;;;;2101510;28;19959;-73
2023/04/16 04:16:51;;;;;;;;;;;10.30;99.90;;;;;;2100953;28;19919;-73
2023/04/16 04:17:51;;;;;;;;;;;10.30;99.90;;;;;;2100933;28;19912;-73
2023/04/16 04:18:52;;;;;;;;;;;10.30;99.90;;;;;;2102300;28;19933;-73
2023/04/16 04:19:52;;;;;;;;;;;10.30;99.90;;;;;;2101646;28;19919;-73
2023/04/16 04:20:53;;;;;;;;;;;10.30;99.90;;;;;;2102567;28;19958;-73
2023/04/16 04:21:53;;;;;;;;;;;10.30;99.90;;;;;;2102532;28;19959;-73
2023/04/16 04:22:54;;;;;;;;;;;10.30;99.90;;;;;;2100305;28;20341;-73
2023/04/16 04:23:54;;;;;;;;;;;10.30;99.90;;;;;;2101304;28;19962;-72
2023/04/16 04:24:54;;;;;;;;;;;10.30;99.90;;;;;;2103248;28;19966;-73
2023/04/16 04:25:55;;;;;;;;;;;10.30;99.90;;;;;;2099985;28;19923;-73
2023/04/16 04:26:56;;;;;;;;;;;10.30;99.90;;;;;;2101946;28;20436;-73
2023/04/16 04:27:56;;;;;;;;;;;10.30;99.90;;;;;;2103841;28;20015;-73
2023/04/16 04:28:57;;;;;;;;;;;10.30;99.90;;;;;;2102271;28;19916;-73
2023/04/16 04:29:57;;;;;;;;;;;10.30;99.90;;;;;;2100843;28;19942;-73
2023/04/16 04:30:58;;;;;;;;;;;10.30;99.90;;;;;;2102260;28;20018;-73
2023/04/16 04:31:58;;;;;;;;;;;10.30;99.90;;;;;;2101407;28;19923;-73
2023/04/16 04:32:59;;;;;;;;;;;10.30;99.90;;;;;;2101869;28;19915;-73
2023/04/16 04:33:59;;;;;;;;;;;10.30;99.90;;;;;;2100083;28;19969;-73
2023/04/16 04:35:01;;;;;;;;;;;10.30;99.90;;;;;;2100863;28;19920;-73
2023/04/16 04:36:01;;;;;;;;;;;10.30;99.90;;;;;;2103354;28;19969;-73
2023/04/16 04:37:02;;;;;;;;;;;10.40;99.90;;;;;;2102172;28;20003;-73
2023/04/16 04:38:03;;;;;;;;;;;10.30;99.90;;;;;;2101153;28;20322;-73
2023/04/16 04:39:03;;;;;;;;;;;10.30;99.90;;;;;;2101712;28;19912;-73
2023/04/16 04:40:04;;;;;;;;;;;10.30;99.90;;;;;;2102082;28;19958;-73
2023/04/16 04:41:04;;;;;;;;;;;10.30;99.90;;;;;;2100899;28;19912;-73
2023/04/16 04:42:05;;;;;;;;;;;10.30;99.90;;;;;;2102343;28;19908;-73
2023/04/16 04:43:05;;;;;;;;;;;10.30;99.90;;;;;;2101827;28;19913;-73
2023/04/16 04:44:06;;;;;;;;;;;10.30;99.90;;;;;;2101291;28;20706;-73
2023/04/16 04:45:07;;;;;;;;;;;10.30;99.90;;;;;;2102112;28;19934;-73
2023/04/16 04:46:07;;;;;;;;;;;10.30;99.90;;;;;;2101517;28;19912;-73
2023/04/16 04:47:08;;;;;;;;;;;10.30;99.90;;;;;;2101858;28;19961;-73
2023/04/16 04:48:08;;;;;;;;;;;10.30;99.90;;;;;;2101418;28;19919;-73
2023/04/16 04:49:08;;;;;;;;;;;10.30;99.90;;;;;;2101983;28;20395;-73
2023/04/16 04:50:09;;;;;;;;;;;10.30;99.90;;;;;;2099567;28;19916;-73
2023/04/16 04:51:10;;;;;;;;;;;10.30;99.90;;;;;;2101606;28;20360;-73
2023/04/16 04:52:10;;;;;;;;;;;10.30;99.90;;;;;;2101301;28;19927;-73
2023/04/16 04:53:13;;;;;;;;;;;10.40;99.90;;;;;;2101459;28;20366;-73
2023/04/16 04:54:13;;;;;;;;;;;10.30;99.90;;;;;;2101802;28;20592;-73
2023/04/16 04:55:14;;;;;;;;;;;10.30;99.90;;;;;;2102224;28;19908;-73
2023/04/16 04:56:15;;;;;;;;;;;10.30;99.90;;;;;;2102059;28;19912;-73
2023/04/16 04:57:15;;;;;;;;;;;10.30;99.90;;;;;;2103266;28;19977;-73
2023/04/16 04:58:16;;;;;;;;;;;10.40;99.90;;;;;;2102684;28;19927;-73
2023/04/16 04:59:16;;;;;;;;;;;10.40;99.90;;;;;;2101460;28;19919;-73
2023/04/16 05:00:17;;;;;;;;;;;10.40;99.90;;;;;;2100525;28;19944;-73
2023/04/16 05:01:17;;;;;;;;;;;10.30;99.90;;;;;;2101455;28;20011;-73
2023/04/16 05:02:18;;;;;;;;;;;10.40;99.90;;;;;;2102592;28;19919;-73
2023/04/16 05:03:19;;;;;;;;;;;10.40;99.90;;;;;;2101524;28;20260;-73
2023/04/16 05:04:19;;;;;;;;;;;10.40;99.90;;;;;;2101746;28;19923;-73
2023/04/16 05:05:20;;;;;;;;;;;10.40;99.90;;;;;;2103895;28;20379;-73
2023/04/16 05:06:20;;;;;;;;;;;10.40;99.90;;;;;;2104655;28;19912;-73
2023/04/16 05:07:21;;;;;;;;;;;10.40;99.90;;;;;;2104639;28;19912;-73
2023/04/16 05:08:21;;;;;;;;;;;10.40;99.90;;;;;;2102966;28;19939;-73
2023/04/16 05:09:21;;;;;;;;;;;10.40;99.90;;;;;;2102757;28;19916;-73
2023/04/16 05:10:22;;;;;;;;;;;10.40;99.90;;;;;;2104356;28;19923;-73
2023/04/16 05:11:22;;;;;;;;;;;10.40;99.90;;;;;;2102978;28;20441;-73
2023/04/16 05:12:23;;;;;;;;;;;10.40;99.90;;;;;;2104336;28;20287;-73
2023/04/16 05:13:23;;;;;;;;;;;10.40;99.90;;;;;;2101128;28;21047;-73
2023/04/16 05:14:24;;;;;;;;;;;10.40;99.90;;;;;;2100381;28;19912;-73
2023/04/16 05:15:25;;;;;;;;;;;10.40;99.90;;;;;;2103128;28;20382;-73
2023/04/16 05:16:25;;;;;;;;;;;10.40;99.90;;;;;;2104013;28;21742;-73
2023/04/16 05:17:25;;;;;;;;;;;10.40;99.90;;;;;;2103779;28;19920;-73
2023/04/16 05:18:26;;;;;;;;;;;10.40;99.90;;;;;;2103765;28;20667;-73
2023/04/16 05:19:27;;;;;;;;;;;10.40;99.90;;;;;;2104208;28;20013;-73
2023/04/16 05:20:27;;;;;;;;;;;10.40;99.90;;;;;;2102197;28;20333;-73
2023/04/16 05:21:28;;;;;;;;;;;10.40;99.90;;;;;;2103491;28;19908;-73
2023/04/16 05:22:28;;;;;;;;;;;10.40;99.90;;;;;;2101795;28;20390;-73
2023/04/16 05:23:29;;;;;;;;;;;10.40;99.90;;;;;;2102864;28;19912;-73
2023/04/16 05:24:29;;;;;;;;;;;10.40;99.90;;;;;;2102675;28;19923;-73
2023/04/16 05:25:30;;;;;;;;;;;10.40;99.90;;;;;;2100898;28;19963;-73
2023/04/16 05:26:30;;;;;;;;;;;10.50;99.90;;;;;;2104411;28;19912;-73
2023/04/16 05:27:31;;;;;;;;;;;10.50;99.90;;;;;;2103881;28;20287;-73
2023/04/16 05:28:31;;;;;;;;;;;10.50;99.90;;;;;;2103260;28;19913;-73
2023/04/16 05:29:31;;;;;;;;;;;10.50;99.90;;;;;;2103805;28;19923;-73
2023/04/16 05:30:32;;;;;;;;;;;10.50;99.90;;;;;;2102382;28;20359;-73
2023/04/16 05:31:32;;;;;;;;;;;10.50;99.90;;;;;;2104325;28;19920;-73
2023/04/16 05:32:33;;;;;;;;;;;10.50;99.90;;;;;;2102856;28;20668;-73
2023/04/16 05:33:33;;;;;;;;;;;10.50;99.90;;;;;;2104381;28;19935;-73
2023/04/16 05:34:34;;;;;;;;;;;10.50;99.90;;;;;;2104695;28;19967;-73
2023/04/16 05:35:34;;;;;;;;;;;10.50;99.90;;;;;;2101732;28;19916;-73
2023/04/16 05:36:35;;;;;;;;;;;10.50;99.90;;;;;;2103732;28;19916;-73
2023/04/16 05:37:35;;;;;;;;;;;10.50;99.90;;;;;;2102828;28;19981;-73
2023/04/16 05:38:36;;;;;;;;;;;10.50;99.90;;;;;;2103352;28;19920;-73
2023/04/16 05:39:36;;;;;;;;;;;10.50;99.90;;;;;;2104131;28;19951;-73
2023/04/16 05:40:37;;;;;;;;;;;10.50;99.90;;;;;;2101636;28;20507;-73
2023/04/16 05:41:37;;;;;;;;;;;10.50;99.90;;;;;;2101855;28;19915;-73
2023/04/16 05:42:38;;;;;;;;;;;10.50;99.90;;;;;;2103645;28;19912;-73
2023/04/16 05:43:38;;;;;;;;;;;10.50;99.90;;;;;;2102846;28;19924;-73
2023/04/16 05:44:39;;;;;;;;;;;10.50;99.90;;;;;;2105229;28;19912;-73
2023/04/16 05:45:40;;;;;;;;;;;10.50;99.90;;;;;;2103737;28;20355;-73
2023/04/16 05:46:40;;;;;;;;;;;10.50;99.90;;;;;;2103786;28;20371;-73
2023/04/16 05:47:41;;;;;;;;;;;10.50;99.90;;;;;;2102829;28;19924;-73
2023/04/16 05:48:41;;;;;;;;;;;10.50;99.90;;;;;;2101370;28;20412;-73
2023/04/16 05:49:41;;;;;;;;;;;10.60;99.90;;;;;;2102462;28;19922;-73
2023/04/16 05:50:42;;;;;;;;;;;10.60;99.90;;;;;;2102092;28;19913;-73
2023/04/16 05:51:43;;;;;;;;;;;10.50;99.90;;;;;;2103106;28;19916;-73
2023/04/16 05:52:43;;;;;;;;;;;10.60;99.90;;;;;;2102835;28;20050;-73
2023/04/16 05:53:44;;;;;;;;;;;10.60;99.90;;;;;;2101710;28;19912;-73